Time,TemperatureF,DewpointF,PressureIn,WindDirection,WindDirectionDegrees,WindSpeedMPH,WindSpeedGustMPH,Humidity,HourlyPrecipIn,Conditions,Clouds,dailyrainin,SoftwareType,DateUTC
2013-06-17 00:02:00,80.8,75.0,29.99,ESE,105,3.0,7.0,83,0.00,,,0.00,weatherlink.com 1.10,2013-06-17 04:02:00,
2013-06-17 00:17:00,80.7,76.0,29.99,East,82,5.0,6.0,84,0.00,,,0.00,weatherlink.com 1.10,2013-06-17 04:17:00,
2013-06-17 00:32:00,80.6,75.0,29.98,East,82,4.0,7.0,84,0.00,,,0.00,weatherlink.com 1.10,2013-06-17 04:32:00,
2013-06-17 00:47:00,80.6,75.0,29.98,East,82,2.0,6.0,84,0.00,,,0.00,weatherlink.com 1.10,2013-06-17 04:47:00,
2013-06-17 01:02:00,80.5,75.0,29.98,ENE,70,3.0,5.0,84,0.00,,,0.00,weatherlink.com 1.10,2013-06-17 05:02:00,
2013-06-17 01:17:00,80.5,76.0,29.98,ENE,69,5.0,6.0,85,0.00,,,0.00,weatherlink.com 1.10,2013-06-17 05:17:00,
2013-06-17 01:32:00,80.3,76.0,29.97,ENE,73,2.0,3.0,85,0.00,,,0.00,weatherlink.com 1.10,2013-06-17 05:32:00,
2013-06-17 01:47:00,80.1,75.0,29.97,East,79,2.0,6.0,85,0.00,,,0.00,weatherlink.com 1.10,2013-06-17 05:47:00,
2013-06-17 02:02:00,80.1,75.0,29.97,East,94,1.0,3.0,85,0.00,,,0.00,weatherlink.com 1.10,2013-06-17 06:02:00,
2013-06-17 02:17:00,80.1,75.0,29.97,ESE,105,1.0,3.0,85,0.00,,,0.00,weatherlink.com 1.10,2013-06-17 06:17:00,
2013-06-17 02:32:00,80.0,76.0,29.97,ESE,105,4.0,5.0,86,0.00,,,0.00,weatherlink.com 1.10,2013-06-17 06:32:00,
2013-06-17 02:47:00,79.9,75.0,29.97,East,79,2.0,5.0,86,0.00,,,0.00,weatherlink.com 1.10,2013-06-17 06:47:00,
2013-06-17 03:02:00,79.9,75.0,29.97,NE,36,2.0,4.0,86,0.00,,,0.00,weatherlink.com 1.10,2013-06-17 07:02:00,
2013-06-17 03:17:00,79.9,75.0,29.97,East,85,2.0,5.0,86,0.00,,,0.00,weatherlink.com 1.10,2013-06-17 07:17:00,
2013-06-17 03:32:00,79.9,75.0,29.97,ENE,78,1.0,4.0,86,0.00,,,0.00,weatherlink.com 1.10,2013-06-17 07:32:00,
2013-06-17 03:47:00,80.1,76.0,29.97,ESE,113,2.0,3.0,86,0.00,,,0.00,weatherlink.com 1.10,2013-06-17 07:47:00,
2013-06-17 04:02:00,80.2,75.0,29.97,SSE,152,1.0,5.0,85,0.00,,,0.00,weatherlink.com 1.10,2013-06-17 08:02:00,
2013-06-17 04:17:00,80.2,76.0,29.97,East,88,2.0,4.0,86,0.00,,,0.00,weatherlink.com 1.10,2013-06-17 08:17:00,
2013-06-17 04:32:00,80.2,76.0,29.97,East,100,1.0,4.0,86,0.00,,,0.00,weatherlink.com 1.10,2013-06-17 08:32:00,
2013-06-17 04:47:00,80.2,76.0,29.98,ESE,103,1.0,2.0,86,0.00,,,0.00,weatherlink.com 1.10,2013-06-17 08:47:00,
2013-06-17 05:02:00,80.2,76.0,29.98,ENE,77,1.0,3.0,86,0.00,,,0.00,weatherlink.com 1.10,2013-06-17 09:02:00,
2013-06-17 05:17:00,80.0,76.0,29.98,ESE,102,2.0,3.0,86,0.00,,,0.00,weatherlink.com 1.10,2013-06-17 09:17:00,
2013-06-17 05:32:00,79.9,75.0,29.98,East,89,2.0,3.0,86,0.00,,,0.00,weatherlink.com 1.10,2013-06-17 09:32:00,
2013-06-17 05:47:00,79.6,75.0,29.98,East,95,0.0,2.0,86,0.00,,,0.00,weatherlink.com 1.10,2013-06-17 09:47:00,
2013-06-17 06:02:00,79.3,76.0,29.98,SE,135,3.0,3.0,88,0.00,,,0.00,weatherlink.com 1.10,2013-06-17 10:02:00,
2013-06-17 06:17:00,79.1,76.0,29.98,ESE,117,0.0,3.0,89,0.00,,,0.00,weatherlink.com 1.10,2013-06-17 10:17:00,
2013-06-17 06:32:00,79.1,76.0,29.99,ESE,107,1.0,4.0,90,0.00,,,0.00,weatherlink.com 1.10,2013-06-17 10:32:00,
2013-06-17 06:47:00,79.5,76.0,29.99,East,95,2.0,4.0,89,0.00,,,0.00,weatherlink.com 1.10,2013-06-17 10:47:00,
2013-06-17 07:02:00,79.7,76.0,29.99,East,83,2.0,3.0,89,0.00,,,0.00,weatherlink.com 1.10,2013-06-17 11:02:00,
2013-06-17 07:17:00,80.0,76.0,30.00,East,85,4.0,6.0,88,0.00,,,0.00,weatherlink.com 1.10,2013-06-17 11:17:00,
2013-06-17 07:32:00,80.4,76.0,29.99,ESE,122,3.0,6.0,87,0.00,,,0.00,weatherlink.com 1.10,2013-06-17 11:32:00,
2013-06-17 07:47:00,81.0,77.0,29.99,East,85,5.0,6.0,87,0.00,,,0.00,weatherlink.com 1.10,2013-06-17 11:47:00,
2013-06-17 08:02:00,81.5,76.0,30.00,East,86,6.0,9.0,84,0.00,,,0.00,weatherlink.com 1.10,2013-06-17 12:02:00,
2013-06-17 08:17:00,81.9,76.0,30.00,East,98,2.0,9.0,83,0.00,,,0.00,weatherlink.com 1.10,2013-06-17 12:17:00,
2013-06-17 08:32:00,82.0,76.0,29.99,ENE,78,3.0,12.0,82,0.00,,,0.00,weatherlink.com 1.10,2013-06-17 12:32:00,
2013-06-17 08:47:00,82.3,76.0,30.00,East,93,4.0,10.0,80,0.00,,,0.00,weatherlink.com 1.10,2013-06-17 12:47:00,
2013-06-17 09:02:00,82.5,75.0,30.00,East,82,2.0,9.0,79,0.00,,,0.00,weatherlink.com 1.10,2013-06-17 13:02:00,
2013-06-17 09:17:00,82.7,76.0,30.00,ENE,70,5.0,13.0,79,0.00,,,0.00,weatherlink.com 1.10,2013-06-17 13:17:00,
2013-06-17 09:32:00,83.1,75.0,30.00,ESE,110,5.0,13.0,77,0.00,,,0.00,weatherlink.com 1.10,2013-06-17 13:32:00,
2013-06-17 09:47:00,83.6,75.0,30.00,ENE,76,7.0,11.0,76,0.00,,,0.00,weatherlink.com 1.10,2013-06-17 13:47:00,
2013-06-17 10:02:00,83.7,75.0,30.00,ESE,103,5.0,11.0,75,0.00,,,0.00,weatherlink.com 1.10,2013-06-17 14:02:00,
2013-06-17 10:17:00,83.8,76.0,30.01,East,84,3.0,11.0,76,0.00,,,0.00,weatherlink.com 1.10,2013-06-17 14:17:00,
2013-06-17 10:32:00,83.8,75.0,30.00,East,101,5.0,13.0,75,0.00,,,0.00,weatherlink.com 1.10,2013-06-17 14:32:00,
2013-06-17 10:47:00,83.9,75.0,30.00,East,88,4.0,10.0,75,0.00,,,0.00,weatherlink.com 1.10,2013-06-17 14:47:00,
2013-06-17 11:02:00,84.1,76.0,30.01,East,96,6.0,10.0,76,0.00,,,0.00,weatherlink.com 1.10,2013-06-17 15:02:00,
2013-06-17 11:17:00,84.3,77.0,30.01,NE,46,7.0,12.0,78,0.00,,,0.00,weatherlink.com 1.10,2013-06-17 15:17:00,
2013-06-17 11:32:00,84.6,76.0,30.00,NE,51,4.0,11.0,76,0.00,,,0.00,weatherlink.com 1.10,2013-06-17 15:32:00,
2013-06-17 11:47:00,84.4,77.0,30.01,NE,56,5.0,9.0,78,0.00,,,0.00,weatherlink.com 1.10,2013-06-17 15:47:00,
2013-06-17 12:02:00,84.3,77.0,30.01,ESE,107,3.0,8.0,78,0.00,,,0.00,weatherlink.com 1.10,2013-06-17 16:02:00,
2013-06-17 12:17:00,83.6,77.0,30.00,NE,46,3.0,7.0,80,0.00,,,0.00,weatherlink.com 1.10,2013-06-17 16:17:00,
2013-06-17 12:32:00,83.5,76.0,30.00,ENE,76,5.0,8.0,79,0.00,,,0.00,weatherlink.com 1.10,2013-06-17 16:32:00,
2013-06-17 12:47:00,83.4,76.0,29.99,ESE,105,3.0,10.0,79,0.00,,,0.00,weatherlink.com 1.10,2013-06-17 16:47:00,
2013-06-17 13:02:00,83.8,77.0,29.99,ENE,77,4.0,9.0,79,0.00,,,0.00,weatherlink.com 1.10,2013-06-17 17:02:00,
2013-06-17 13:18:00,84.4,77.0,29.99,East,83,7.0,9.0,77,0.00,,,0.00,weatherlink.com 1.10,2013-06-17 17:18:00,
2013-06-17 13:33:00,83.9,76.0,29.98,NNE,30,4.0,9.0,78,0.00,,,0.00,weatherlink.com 1.10,2013-06-17 17:33:00,
2013-06-17 13:48:00,84.6,77.0,29.98,ENE,66,3.0,8.0,78,0.00,,,0.00,weatherlink.com 1.10,2013-06-17 17:48:00,
2013-06-17 14:03:00,84.2,78.0,29.98,ESE,110,3.0,8.0,82,0.01,,,0.01,weatherlink.com 1.10,2013-06-17 18:03:00,
2013-06-17 14:18:00,83.0,77.0,29.98,ENE,70,7.0,9.0,81,0.01,,,0.01,weatherlink.com 1.10,2013-06-17 18:18:00,
2013-06-17 14:33:00,82.4,77.0,29.98,East,86,5.0,8.0,84,0.03,,,0.03,weatherlink.com 1.10,2013-06-17 18:33:00,
2013-06-17 14:48:00,83.1,77.0,29.98,NE,38,11.0,13.0,81,0.03,,,0.03,weatherlink.com 1.10,2013-06-17 18:48:00,
2013-06-17 15:03:00,83.7,77.0,29.98,ENE,64,6.0,9.0,79,0.02,,,0.03,weatherlink.com 1.10,2013-06-17 19:03:00,
2013-06-17 15:18:00,84.2,76.0,29.97,ENE,63,10.0,12.0,77,0.02,,,0.03,weatherlink.com 1.10,2013-06-17 19:18:00,
2013-06-17 15:33:00,84.4,76.0,29.97,NNE,33,3.0,11.0,76,0.00,,,0.03,weatherlink.com 1.10,2013-06-17 19:33:00,
2013-06-17 15:48:00,84.2,76.0,29.97,ESE,120,9.0,11.0,77,0.00,,,0.03,weatherlink.com 1.10,2013-06-17 19:48:00,
2013-06-17 16:03:00,84.0,76.0,29.96,NE,51,7.0,12.0,77,0.00,,,0.03,weatherlink.com 1.10,2013-06-17 20:03:00,
2013-06-17 16:18:00,84.7,76.0,29.96,ENE,57,9.0,13.0,76,0.00,,,0.03,weatherlink.com 1.10,2013-06-17 20:18:00,
2013-06-17 16:33:00,83.7,77.0,29.96,NW,317,4.0,12.0,79,0.00,,,0.03,weatherlink.com 1.10,2013-06-17 20:33:00,
2013-06-17 16:48:00,83.5,76.0,29.96,ENE,72,11.0,12.0,78,0.00,,,0.03,weatherlink.com 1.10,2013-06-17 20:48:00,
2013-06-17 17:03:00,83.1,76.0,29.97,East,89,9.0,11.0,79,0.00,,,0.03,weatherlink.com 1.10,2013-06-17 21:03:00,
2013-06-17 17:18:00,83.2,76.0,29.97,ENE,66,3.0,11.0,79,0.00,,,0.03,weatherlink.com 1.10,2013-06-17 21:18:00,
2013-06-17 17:33:00,83.1,76.0,29.97,ENE,63,9.0,12.0,79,0.00,,,0.03,weatherlink.com 1.10,2013-06-17 21:33:00,
2013-06-17 17:48:00,83.1,76.0,29.97,East,97,5.0,11.0,80,0.00,,,0.03,weatherlink.com 1.10,2013-06-17 21:48:00,
2013-06-17 18:03:00,82.9,76.0,29.97,NE,56,5.0,10.0,80,0.00,,,0.03,weatherlink.com 1.10,2013-06-17 22:03:00,
2013-06-17 18:18:00,82.6,76.0,29.98,ENE,72,8.0,10.0,80,0.00,,,0.03,weatherlink.com 1.10,2013-06-17 22:18:00,
2013-06-17 18:33:00,82.3,75.0,29.98,ENE,65,7.0,10.0,79,0.00,,,0.03,weatherlink.com 1.10,2013-06-17 22:33:00,
2013-06-17 18:48:00,82.2,76.0,29.99,NE,48,5.0,9.0,80,0.00,,,0.03,weatherlink.com 1.10,2013-06-17 22:48:00,
2013-06-17 19:03:00,81.7,75.0,29.99,ENE,63,5.0,7.0,81,0.00,,,0.03,weatherlink.com 1.10,2013-06-17 23:03:00,
2013-06-17 19:18:00,81.3,75.0,29.99,ENE,70,1.0,7.0,82,0.00,,,0.03,weatherlink.com 1.10,2013-06-17 23:18:00,
2013-06-17 19:33:00,80.9,75.0,29.99,NNE,16,3.0,7.0,83,0.00,,,0.03,weatherlink.com 1.10,2013-06-17 23:33:00,
2013-06-17 19:48:00,80.9,76.0,30.00,ENE,65,5.0,6.0,84,0.00,,,0.03,weatherlink.com 1.10,2013-06-17 23:48:00,
2013-06-17 20:18:00,80.7,76.0,30.00,East,83,1.0,5.0,84,0.00,,,0.03,weatherlink.com 1.10,2013-06-18 00:18:00,
2013-06-17 20:33:00,80.8,76.0,30.00,East,82,8.0,8.0,84,0.00,,,0.03,weatherlink.com 1.10,2013-06-18 00:33:00,
2013-06-17 20:48:00,80.8,76.0,30.01,ENE,75,4.0,6.0,84,0.00,,,0.03,weatherlink.com 1.10,2013-06-18 00:48:00,
2013-06-17 21:03:00,80.8,76.0,30.01,ENE,68,1.0,7.0,85,0.00,,,0.03,weatherlink.com 1.10,2013-06-18 01:03:00,
2013-06-17 21:18:00,80.7,76.0,30.01,ESE,103,6.0,9.0,85,0.00,,,0.03,weatherlink.com 1.10,2013-06-18 01:18:00,
2013-06-17 21:33:00,80.6,76.0,30.01,ESE,110,4.0,6.0,86,0.00,,,0.03,weatherlink.com 1.10,2013-06-18 01:33:00,
2013-06-17 21:48:00,80.4,76.0,30.01,ENE,71,4.0,6.0,86,0.00,,,0.03,weatherlink.com 1.10,2013-06-18 01:48:00,
2013-06-17 22:03:00,80.4,76.0,30.01,East,86,1.0,5.0,86,0.00,,,0.03,weatherlink.com 1.10,2013-06-18 02:03:00,
2013-06-17 22:18:00,80.3,76.0,30.01,East,84,5.0,7.0,85,0.00,,,0.03,weatherlink.com 1.10,2013-06-18 02:18:00,
2013-06-17 22:33:00,80.2,75.0,30.01,ENE,75,3.0,6.0,85,0.00,,,0.03,weatherlink.com 1.10,2013-06-18 02:33:00,
2013-06-17 22:48:00,80.2,75.0,30.01,East,85,2.0,5.0,84,0.00,,,0.03,weatherlink.com 1.10,2013-06-18 02:48:00,
2013-06-17 23:03:00,80.1,75.0,30.01,East,80,5.0,7.0,84,0.00,,,0.03,weatherlink.com 1.10,2013-06-18 03:03:00,
2013-06-17 23:18:00,80.0,74.0,30.01,SE,127,2.0,6.0,83,0.00,,,0.03,weatherlink.com 1.10,2013-06-18 03:18:00,
2013-06-17 23:33:00,80.0,74.0,30.00,East,80,4.0,6.0,83,0.00,,,0.03,weatherlink.com 1.10,2013-06-18 03:33:00,
2013-06-17 23:48:00,79.9,75.0,30.00,ENE,61,2.0,8.0,84,0.00,,,0.03,weatherlink.com 1.10,2013-06-18 03:48:00,